createdAt,value
2022-11-02T00:01:41.247Z,90.13
2022-11-02T00:04:11.107Z,90.22
2022-11-02T00:06:41.762Z,90.97
2022-11-02T00:09:11.231Z,91.17
2022-11-02T00:11:41.435Z,90.54
2022-11-02T00:14:09.572Z,91.34
2022-11-02T00:16:40.793Z,91.60
2022-11-02T00:19:10.463Z,92.45
2022-11-02T00:21:40.247Z,93.82
2022-11-02T00:24:11.132Z,95.16
2022-11-02T00:26:41.113Z,97.34
2022-11-02T00:29:10.476Z,100.00
2022-11-02T00:31:38.908Z,100.00
2022-11-02T00:34:07.356Z,100.00
2022-11-02T00:36:35.629Z,100.00
2022-11-02T00:39:04.941Z,99.95
2022-11-02T00:41:33.004Z,98.57
2022-11-02T00:44:03.073Z,97.36
2022-11-02T00:46:31.213Z,100.00
2022-11-02T00:49:00.778Z,100.00
2022-11-02T00:51:28.748Z,100.00
2022-11-02T00:53:57.672Z,100.00
2022-11-02T00:56:26.330Z,100.00
2022-11-02T00:58:54.609Z,100.00
2022-11-02T01:01:24.448Z,100.00
2022-11-02T01:03:52.895Z,100.00
2022-11-02T01:06:21.978Z,100.00
2022-11-02T01:08:51.456Z,100.00
2022-11-02T01:11:21.611Z,100.00
2022-11-02T01:13:54.623Z,100.00
2022-11-02T01:16:24.609Z,100.00
2022-11-02T01:18:54.095Z,100.00
2022-11-02T01:21:25.232Z,100.00
2022-11-02T01:23:54.114Z,100.00
2022-11-02T01:26:22.796Z,100.00
2022-11-02T01:28:51.729Z,100.00
2022-11-02T01:31:20.156Z,100.00
2022-11-02T01:33:50.416Z,100.00
2022-11-02T01:38:51.780Z,100.00
2022-11-02T01:41:20.109Z,100.00
2022-11-02T01:43:53.296Z,100.00
2022-11-02T01:46:24.203Z,100.00
2022-11-02T01:48:58.524Z,100.00
2022-11-02T01:51:30.909Z,100.00
2022-11-02T01:54:03.819Z,100.00
2022-11-02T01:56:38.512Z,100.00
2022-11-02T01:59:13.760Z,100.00
2022-11-02T02:01:42.235Z,100.00
2022-11-02T02:04:14.748Z,100.00
2022-11-02T02:06:46.054Z,100.00
2022-11-02T02:09:15.133Z,100.00
2022-11-02T02:11:43.522Z,100.00
2022-11-02T02:14:17.338Z,100.00
2022-11-02T02:17:00.330Z,100.00
2022-11-02T02:19:42.300Z,100.00
2022-11-02T02:22:28.149Z,100.00
2022-11-02T02:25:08.158Z,100.00
2022-11-02T02:27:54.909Z,100.00
2022-11-02T02:30:23.972Z,100.00
2022-11-02T02:32:58.772Z,100.00
2022-11-02T02:35:32.159Z,100.00
2022-11-02T02:38:04.504Z,100.00
2022-11-02T02:40:38.397Z,100.00
2022-11-02T02:43:12.244Z,100.00
2022-11-02T02:45:46.042Z,100.00
2022-11-02T02:48:18.250Z,100.00
2022-11-02T02:50:50.011Z,100.00
2022-11-02T02:53:22.896Z,100.00
2022-11-02T02:55:52.537Z,100.00
2022-11-02T02:58:26.130Z,100.00
2022-11-02T03:00:55.749Z,100.00
2022-11-02T03:03:27.799Z,100.00
2022-11-02T03:06:07.605Z,100.00
2022-11-02T03:08:39.061Z,100.00
2022-11-02T03:11:14.078Z,100.00
2022-11-02T03:13:59.909Z,100.00
2022-11-02T03:16:45.963Z,100.00
2022-11-02T03:19:22.161Z,100.00
2022-11-02T03:21:56.780Z,100.00
2022-11-02T03:24:30.977Z,100.00
2022-11-02T03:27:09.599Z,100.00
2022-11-02T03:29:47.186Z,100.00
2022-11-02T03:32:25.394Z,100.00
2022-11-02T03:34:59.813Z,100.00
2022-11-02T03:37:32.899Z,100.00
2022-11-02T03:40:08.494Z,100.00
2022-11-02T03:42:38.292Z,100.00
2022-11-02T03:45:12.606Z,100.00
2022-11-02T03:47:46.519Z,100.00
2022-11-02T03:50:19.306Z,100.00
2022-11-02T03:52:53.652Z,100.00
2022-11-02T03:55:29.418Z,100.00
2022-11-02T03:57:57.993Z,100.00
2022-11-02T04:00:31.701Z,100.00
2022-11-02T04:03:04.326Z,100.00
2022-11-02T04:05:36.619Z,100.00
2022-11-02T04:08:24.586Z,100.00
2022-11-02T04:11:11.603Z,100.00
2022-11-02T04:13:57.591Z,100.00
2022-11-02T04:16:28.616Z,100.00
2022-11-02T04:19:14.708Z,100.00
2022-11-02T04:22:03.307Z,100.00
2022-11-02T04:24:49.352Z,100.00
2022-11-02T04:27:20.923Z,100.00
2022-11-02T04:29:50.687Z,100.00
2022-11-02T04:32:36.049Z,100.00
2022-11-02T04:35:04.734Z,100.00
2022-11-02T04:37:50.405Z,100.00
2022-11-02T04:40:19.040Z,100.00
2022-11-02T04:42:52.262Z,100.00
2022-11-02T04:45:21.134Z,100.00
2022-11-02T04:47:50.990Z,100.00
2022-11-02T04:50:20.039Z,100.00
2022-11-02T04:52:48.109Z,100.00
2022-11-02T04:55:16.752Z,100.00
2022-11-02T04:57:47.171Z,100.00
2022-11-02T05:00:17.101Z,100.00
2022-11-02T05:02:47.260Z,100.00
2022-11-02T05:05:18.082Z,100.00
2022-11-02T05:07:47.859Z,100.00
2022-11-02T05:10:17.261Z,100.00
2022-11-02T05:12:45.658Z,100.00
2022-11-02T05:15:13.889Z,100.00
2022-11-02T05:17:42.137Z,100.00
2022-11-02T05:20:11.056Z,100.00
2022-11-02T05:22:43.856Z,100.00
2022-11-02T05:25:13.223Z,100.00
2022-11-02T05:27:41.671Z,100.00
2022-11-02T05:30:10.744Z,100.00
2022-11-02T05:32:39.510Z,100.00
2022-11-02T05:35:08.477Z,100.00
2022-11-02T05:37:36.510Z,100.00
2022-11-02T05:40:10.085Z,100.00
2022-11-02T05:42:39.542Z,100.00
2022-11-02T05:45:09.175Z,100.00
2022-11-02T05:47:37.569Z,100.00
2022-11-02T05:50:06.302Z,100.00
2022-11-02T05:52:36.836Z,100.00
2022-11-02T05:55:08.920Z,100.00
2022-11-02T05:57:37.431Z,100.00
2022-11-02T06:00:06.547Z,100.00
2022-11-02T06:02:36.518Z,100.00
2022-11-02T06:05:05.096Z,100.00
2022-11-02T06:07:34.110Z,100.00
2022-11-02T06:10:03.009Z,100.00
2022-11-02T06:12:32.317Z,100.00
2022-11-02T06:15:00.570Z,100.00
2022-11-02T06:17:29.005Z,100.00
2022-11-02T06:19:56.986Z,100.00
2022-11-02T06:22:25.102Z,100.00
2022-11-02T06:24:54.774Z,100.00
2022-11-02T06:27:24.180Z,100.00
2022-11-02T06:29:54.056Z,100.00
2022-11-02T06:32:22.366Z,100.00
2022-11-02T06:34:50.857Z,100.00
2022-11-02T06:37:19.474Z,100.00
2022-11-02T06:39:47.680Z,100.00
2022-11-02T06:42:16.009Z,100.00
2022-11-02T06:44:44.036Z,100.00
2022-11-02T06:47:13.997Z,100.00
2022-11-02T06:49:42.282Z,100.00
2022-11-02T06:52:10.752Z,100.00
2022-11-02T06:54:38.828Z,100.00
2022-11-02T06:57:07.665Z,100.00
2022-11-02T06:59:35.718Z,100.00
2022-11-02T07:02:04.128Z,100.00
2022-11-02T07:04:34.065Z,100.00
2022-11-02T07:07:02.197Z,100.00
2022-11-02T07:09:33.383Z,100.00
2022-11-02T07:12:01.791Z,100.00
2022-11-02T07:14:29.853Z,100.00
2022-11-02T07:16:58.488Z,100.00
2022-11-02T07:19:29.871Z,100.00
2022-11-02T07:21:59.771Z,100.00
2022-11-02T07:24:28.135Z,100.00
2022-11-02T07:26:56.779Z,100.00
2022-11-02T07:29:26.931Z,100.00
2022-11-02T07:31:56.164Z,100.00
2022-11-02T07:34:24.646Z,100.00
2022-11-02T07:36:52.930Z,100.00
2022-11-02T07:39:22.940Z,100.00
2022-11-02T07:41:52.170Z,100.00
2022-11-02T07:44:20.605Z,100.00
2022-11-02T07:46:48.982Z,100.00
2022-11-02T07:49:21.299Z,100.00
2022-11-02T07:51:51.013Z,100.00
2022-11-02T07:54:19.286Z,100.00
2022-11-02T07:56:50.050Z,100.00
2022-11-02T07:59:19.300Z,100.00
2022-11-02T08:01:47.440Z,100.00
2022-11-02T08:04:15.702Z,100.00
2022-11-02T08:06:44.532Z,100.00
2022-11-02T08:09:13.277Z,100.00
2022-11-02T08:11:41.129Z,100.00
2022-11-02T08:14:11.491Z,100.00
2022-11-02T08:16:40.084Z,100.00
2022-11-02T08:19:08.409Z,100.00
2022-11-02T08:21:37.606Z,100.00
2022-11-02T08:24:06.460Z,100.00
2022-11-02T08:26:35.212Z,96.82
2022-11-02T08:29:04.648Z,100.00
2022-11-02T08:31:34.360Z,100.00
2022-11-02T08:34:02.249Z,100.00
2022-11-02T08:36:30.685Z,100.00
2022-11-02T08:38:58.611Z,100.00
2022-11-02T08:41:26.796Z,100.00
2022-11-02T08:43:55.021Z,100.00
2022-11-02T08:46:23.453Z,100.00
2022-11-02T08:48:55.803Z,100.00
2022-11-02T08:51:23.882Z,100.00
2022-11-02T08:53:52.204Z,100.00
2022-11-02T08:56:20.429Z,100.00
2022-11-02T08:58:49.780Z,100.00
2022-11-02T09:01:17.916Z,100.00
2022-11-02T09:03:46.788Z,100.00
2022-11-02T09:06:17.792Z,100.00
2022-11-02T09:08:46.542Z,100.00
2022-11-02T09:11:15.215Z,100.00
2022-11-02T09:13:44.722Z,100.00
2022-11-02T09:16:13.561Z,100.00
2022-11-02T09:18:43.265Z,99.42
2022-11-02T09:21:12.888Z,94.93
2022-11-02T09:23:43.947Z,93.90
2022-11-02T09:26:11.902Z,86.96
2022-11-02T09:28:39.834Z,84.72
2022-11-02T09:31:10.757Z,84.43
2022-11-02T09:33:40.117Z,81.10
2022-11-02T09:36:09.158Z,77.95
2022-11-02T09:38:38.460Z,76.83
2022-11-02T09:41:15.676Z,74.98
2022-11-02T09:43:54.813Z,73.62
2022-11-02T09:46:27.560Z,73.14
2022-11-02T09:48:58.696Z,69.96
2022-11-02T09:51:34.217Z,70.05
2022-11-02T09:54:13.088Z,65.50
2022-11-02T09:56:45.985Z,64.40
2022-11-02T09:59:17.520Z,63.46
2022-11-02T10:01:57.019Z,61.47
2022-11-02T10:04:55.278Z,59.00
2022-11-02T10:07:35.170Z,57.20
2022-11-02T10:10:13.721Z,56.51
2022-11-02T10:12:52.573Z,55.60
2022-11-02T10:15:24.051Z,55.11
2022-11-02T10:17:57.547Z,53.68
2022-11-02T10:20:28.255Z,52.63
2022-11-02T10:23:03.891Z,52.92
2022-11-02T10:25:32.549Z,51.66
2022-11-02T10:28:07.222Z,50.21
2022-11-02T10:30:36.103Z,50.27
2022-11-02T10:33:14.298Z,50.36
2022-11-02T10:39:00.608Z,48.40
2022-11-02T10:41:52.498Z,48.16
2022-11-02T10:44:45.314Z,48.16
2022-11-02T10:47:19.042Z,48.42
2022-11-02T10:50:20.555Z,48.60
2022-11-02T10:52:49.074Z,47.20
2022-11-02T10:55:28.815Z,46.25
2022-11-02T10:58:00.265Z,45.74
2022-11-02T11:00:44.705Z,44.41
2022-11-02T11:03:15.148Z,44.92
2022-11-02T11:05:59.390Z,43.77
2022-11-02T11:08:32.671Z,43.77
2022-11-02T11:11:18.759Z,42.58
2022-11-02T11:16:49.127Z,42.31
2022-11-02T11:19:40.364Z,41.25
2022-11-02T11:22:26.310Z,40.97
2022-11-02T11:24:56.297Z,39.80
2022-11-02T11:27:25.123Z,38.41
2022-11-02T11:29:58.587Z,38.16
2022-11-02T11:32:30.855Z,38.08
2022-11-02T11:35:02.598Z,36.65
2022-11-02T11:37:31.395Z,36.81
2022-11-02T11:40:02.830Z,37.27
2022-11-02T11:42:35.997Z,34.73
2022-11-02T11:45:07.429Z,35.33
2022-11-02T11:47:40.338Z,34.35
2022-11-02T11:50:24.832Z,34.17
2022-11-02T11:53:18.501Z,32.89
2022-11-02T11:55:49.674Z,32.33
2022-11-02T11:58:21.879Z,31.21
2022-11-02T12:01:09.373Z,29.61
2022-11-02T12:03:54.540Z,29.80
2022-11-02T12:06:30.444Z,29.97
2022-11-02T12:09:12.977Z,29.06
2022-11-02T12:11:51.682Z,27.24
2022-11-02T12:14:34.786Z,27.66
2022-11-02T12:17:19.709Z,27.29
2022-11-02T12:20:12.563Z,27.16
2022-11-02T12:22:51.924Z,27.37
2022-11-02T12:25:35.272Z,27.08
2022-11-02T12:28:20.493Z,27.33
2022-11-02T12:31:00.043Z,27.48
2022-11-02T12:33:39.597Z,27.55
2022-11-02T12:36:42.338Z,27.97
2022-11-02T12:39:29.425Z,27.66
2022-11-02T12:42:11.735Z,27.59
2022-11-02T12:45:21.404Z,27.31
2022-11-02T12:47:57.044Z,27.74
2022-11-02T12:50:36.713Z,27.77
2022-11-02T12:53:22.672Z,27.91
2022-11-02T12:55:55.481Z,27.78
2022-11-02T12:58:27.312Z,27.76
2022-11-02T13:01:00.086Z,27.62
2022-11-02T13:03:40.198Z,27.88
2022-11-02T13:06:15.158Z,27.95
2022-11-02T13:08:51.633Z,27.96
2022-11-02T13:11:25.682Z,27.51
2022-11-02T13:13:58.011Z,27.92
2022-11-02T13:16:43.686Z,27.66
2022-11-02T13:19:19.619Z,27.37
2022-11-02T13:21:55.022Z,27.54
2022-11-02T13:24:32.362Z,27.86
2022-11-02T13:29:57.772Z,27.56
2022-11-02T13:32:34.117Z,27.92
2022-11-02T13:35:09.175Z,27.91
2022-11-02T13:37:41.920Z,27.93
2022-11-02T13:40:18.532Z,27.67
2022-11-02T13:46:18.987Z,27.46
2022-11-02T13:48:58.853Z,27.59
2022-11-02T13:51:32.552Z,27.32
2022-11-02T13:54:04.215Z,26.29
2022-11-02T13:56:37.660Z,25.08
2022-11-02T13:59:09.066Z,24.95
2022-11-02T14:01:42.078Z,24.72
2022-11-02T14:04:12.409Z,23.29
2022-11-02T14:06:52.148Z,24.09
2022-11-02T14:09:35.456Z,25.48
2022-11-02T14:12:29.953Z,26.27
2022-11-02T14:15:49.947Z,26.85
2022-11-02T14:18:31.457Z,27.14
2022-11-02T14:21:00.783Z,27.82
2022-11-02T14:23:39.665Z,28.05
2022-11-02T14:26:34.049Z,28.02
2022-11-02T14:29:27.103Z,28.71
2022-11-02T14:32:05.386Z,28.89
2022-11-02T14:34:58.196Z,29.04
2022-11-02T14:37:45.753Z,29.29
2022-11-02T14:40:28.280Z,29.65
2022-11-02T14:43:45.750Z,29.70
2022-11-02T14:46:25.390Z,29.69
2022-11-02T14:48:57.734Z,29.75
2022-11-02T14:51:29.092Z,30.24
2022-11-02T14:53:59.839Z,30.65
2022-11-02T14:56:49.665Z,30.59
2022-11-02T14:59:21.262Z,30.70
2022-11-02T15:02:05.809Z,30.60
2022-11-02T15:04:36.392Z,31.07
2022-11-02T15:07:07.894Z,31.11
2022-11-02T15:09:56.855Z,31.25
2022-11-02T15:12:34.800Z,31.56
2022-11-02T15:15:26.797Z,32.02
2022-11-02T15:18:23.291Z,32.18
2022-11-02T15:21:25.361Z,32.34
2022-11-02T15:24:05.666Z,32.75
2022-11-02T15:26:42.462Z,32.73
2022-11-02T15:29:18.124Z,32.97
2022-11-02T15:31:54.853Z,33.18
2022-11-02T15:34:32.846Z,33.16
2022-11-02T15:37:04.511Z,32.89
2022-11-02T15:39:33.517Z,33.00
2022-11-02T15:42:14.517Z,33.22
2022-11-02T15:45:26.707Z,33.32
2022-11-02T15:48:13.331Z,33.38
2022-11-02T15:50:54.758Z,33.51
2022-11-02T15:53:49.972Z,34.27
2022-11-02T15:56:29.720Z,34.46
2022-11-02T15:59:45.876Z,34.96
2022-11-02T16:02:25.205Z,35.29
2022-11-02T16:04:56.129Z,35.75
2022-11-02T16:07:33.270Z,36.08
2022-11-02T16:10:23.302Z,36.54
2022-11-02T16:13:04.915Z,36.84
2022-11-02T16:15:32.861Z,36.94
2022-11-02T16:18:01.248Z,36.96
2022-11-02T16:20:31.078Z,36.63
2022-11-02T16:23:02.215Z,36.63
2022-11-02T16:25:39.904Z,36.72
2022-11-02T16:28:20.380Z,36.42
2022-11-02T16:31:19.059Z,36.77
2022-11-02T16:33:50.902Z,36.54
2022-11-02T16:36:21.759Z,36.90
2022-11-02T16:38:59.742Z,36.85
2022-11-02T16:41:29.881Z,37.04
2022-11-02T16:44:01.120Z,37.08
2022-11-02T16:46:41.103Z,37.04
2022-11-02T16:49:16.902Z,37.25
2022-11-02T16:51:54.094Z,37.23
2022-11-02T16:54:40.594Z,37.34
2022-11-02T16:57:17.432Z,37.38
2022-11-02T16:59:52.076Z,37.54
2022-11-02T17:02:24.526Z,37.60
2022-11-02T17:05:02.669Z,37.59
2022-11-02T17:07:37.044Z,37.57
2022-11-02T17:10:09.083Z,37.61
2022-11-02T17:12:40.672Z,37.63
2022-11-02T17:15:18.282Z,37.69
2022-11-02T17:17:46.693Z,37.76
2022-11-02T17:20:21.151Z,37.71
2022-11-02T17:22:58.016Z,37.79
2022-11-02T17:25:29.146Z,37.83
2022-11-02T17:27:59.213Z,37.66
2022-11-02T17:31:00.728Z,37.85
2022-11-02T17:33:31.746Z,37.84
2022-11-02T17:36:07.124Z,38.00
2022-11-02T17:38:35.985Z,37.69
2022-11-02T17:41:25.883Z,37.75
2022-11-02T17:43:53.236Z,38.28
2022-11-02T17:46:22.515Z,38.36
2022-11-02T17:48:50.478Z,38.35
2022-11-02T17:51:21.967Z,38.37
2022-11-02T17:53:50.566Z,38.23
2022-11-02T17:56:20.364Z,38.00
2022-11-02T17:58:48.575Z,37.98
2022-11-02T18:01:17.128Z,37.76
2022-11-02T18:03:46.313Z,38.07
2022-11-02T18:06:14.314Z,38.16
2022-11-02T18:09:01.105Z,38.06
2022-11-02T18:11:30.717Z,38.21
2022-11-02T18:13:59.011Z,38.06
2022-11-02T18:16:27.500Z,38.02
2022-11-02T18:18:55.667Z,38.20
2022-11-02T18:21:24.122Z,37.95
2022-11-02T18:23:52.528Z,38.24
2022-11-02T18:26:20.744Z,38.33
2022-11-02T18:28:50.183Z,38.24
2022-11-02T18:31:19.955Z,38.36
2022-11-02T18:33:48.255Z,38.69
2022-11-02T18:36:16.361Z,38.48
2022-11-02T18:38:44.506Z,38.71
2022-11-02T18:41:26.418Z,38.59
2022-11-02T18:44:03.546Z,38.55
2022-11-02T18:46:34.194Z,38.69
2022-11-02T18:49:02.630Z,39.19
2022-11-02T18:51:30.993Z,39.24
2022-11-02T18:54:01.112Z,39.09
2022-11-02T18:56:29.501Z,39.05
2022-11-02T18:58:59.196Z,38.84
2022-11-02T19:01:28.625Z,38.65
2022-11-02T19:03:58.321Z,39.10
2022-11-02T19:06:44.780Z,39.27
2022-11-02T19:09:20.709Z,38.94
2022-11-02T19:11:51.640Z,39.16
2022-11-02T19:14:23.033Z,39.20
2022-11-02T19:16:51.153Z,39.19
2022-11-02T19:19:19.709Z,39.23
2022-11-02T19:21:48.884Z,39.35
2022-11-02T19:24:16.851Z,39.55
2022-11-02T19:26:44.901Z,39.84
2022-11-02T19:29:13.625Z,40.06
2022-11-02T19:31:43.893Z,40.34
2022-11-02T19:34:12.145Z,40.55
2022-11-02T19:36:40.733Z,40.64
2022-11-02T19:39:10.004Z,40.64
2022-11-02T19:41:38.480Z,40.96
2022-11-02T19:44:07.637Z,41.10
2022-11-02T19:46:35.992Z,41.16
2022-11-02T19:49:06.161Z,41.44
2022-11-02T19:51:35.789Z,41.19
2022-11-02T19:54:04.340Z,41.24
2022-11-02T19:56:34.638Z,41.41
2022-11-02T19:59:03.579Z,41.33
2022-11-02T20:01:33.889Z,41.43
2022-11-02T20:04:03.137Z,41.10
2022-11-02T20:06:36.731Z,41.46
2022-11-02T20:09:06.814Z,41.37
2022-11-02T20:11:36.845Z,40.90
2022-11-02T20:14:06.190Z,40.90
2022-11-02T20:16:35.349Z,40.87
2022-11-02T20:19:03.682Z,40.58
2022-11-02T20:21:38.226Z,40.33
2022-11-02T20:24:09.827Z,40.28
2022-11-02T20:26:41.524Z,40.22
2022-11-02T20:29:13.631Z,40.74
2022-11-02T20:31:46.282Z,40.59
2022-11-02T20:34:16.052Z,40.38
2022-11-02T20:36:47.640Z,40.67
2022-11-02T20:39:15.766Z,40.68
2022-11-02T20:41:44.018Z,40.63
2022-11-02T20:44:12.306Z,40.68
2022-11-02T20:46:42.231Z,40.56
2022-11-02T20:49:22.181Z,40.59
2022-11-02T20:51:59.286Z,40.52
2022-11-02T20:54:30.079Z,40.79
2022-11-02T20:56:58.752Z,41.08
2022-11-02T20:59:27.229Z,41.27
2022-11-02T21:01:56.355Z,41.08
2022-11-02T21:04:24.807Z,40.93
2022-11-02T21:06:53.394Z,40.84
2022-11-02T21:09:22.783Z,40.85
2022-11-02T21:12:08.615Z,40.96
2022-11-02T21:14:36.676Z,40.97
2022-11-02T21:17:06.929Z,41.29
2022-11-02T21:19:35.166Z,40.98
2022-11-02T21:22:03.448Z,40.90
2022-11-02T21:24:33.015Z,40.87
2022-11-02T21:27:01.258Z,40.70
2022-11-02T21:29:29.432Z,40.74
2022-11-02T21:31:57.704Z,41.09
2022-11-02T21:34:26.892Z,41.21
2022-11-02T21:36:55.064Z,41.34
2022-11-02T21:39:23.319Z,41.38
2022-11-02T21:41:53.755Z,41.01
2022-11-02T21:44:21.812Z,40.70
2022-11-02T21:46:51.195Z,40.35
2022-11-02T21:49:19.483Z,40.52
2022-11-02T21:51:47.774Z,40.47
2022-11-02T21:54:16.254Z,40.38
2022-11-02T21:56:46.476Z,39.91
2022-11-02T21:59:15.997Z,40.12
2022-11-02T22:01:47.444Z,39.93
2022-11-02T22:04:19.586Z,40.17
2022-11-02T22:06:49.126Z,39.73
2022-11-02T22:09:17.346Z,39.56
2022-11-02T22:11:45.971Z,39.89
2022-11-02T22:14:16.018Z,40.03
2022-11-02T22:16:45.025Z,39.88
2022-11-02T22:19:15.806Z,40.13
2022-11-02T22:21:45.594Z,40.24
2022-11-02T22:24:14.108Z,40.45
2022-11-02T22:26:42.595Z,40.04
2022-11-02T22:29:10.977Z,39.80
2022-11-02T22:31:41.835Z,40.03
2022-11-02T22:34:13.314Z,39.88
2022-11-02T22:36:45.646Z,39.86
2022-11-02T22:39:14.441Z,39.55
2022-11-02T22:41:44.357Z,39.37
2022-11-02T22:44:15.118Z,39.53
2022-11-02T22:46:46.553Z,39.28
2022-11-02T22:49:16.977Z,39.52
2022-11-02T22:51:46.828Z,40.01
2022-11-02T22:54:16.252Z,40.21
2022-11-02T22:56:44.833Z,40.14
2022-11-02T22:59:13.316Z,40.54
2022-11-02T23:01:42.675Z,40.52
2022-11-02T23:04:13.776Z,40.66
2022-11-02T23:06:42.977Z,41.10
2022-11-02T23:09:12.665Z,41.40
2022-11-02T23:11:39.856Z,41.47
2022-11-02T23:14:10.421Z,41.71
2022-11-02T23:16:41.040Z,41.91
2022-11-02T23:19:30.484Z,42.02
2022-11-02T23:22:19.469Z,42.03
2022-11-02T23:25:07.567Z,41.80
2022-11-02T23:27:59.259Z,41.65
2022-11-02T23:30:47.624Z,41.77
2022-11-02T23:33:16.104Z,41.87
2022-11-02T23:36:02.405Z,41.88
2022-11-02T23:38:45.859Z,42.33
2022-11-02T23:41:15.879Z,42.37
2022-11-02T23:43:44.052Z,42.49
2022-11-02T23:46:13.088Z,42.67
2022-11-02T23:48:44.866Z,43.60
2022-11-02T23:51:33.338Z,43.90
2022-11-02T23:54:20.667Z,44.37
2022-11-02T23:56:53.156Z,44.88
2022-11-02T23:59:21.764Z,45.04
